Time;durP1;ratioP1;P1;durP2;ratioP2;P2;SDS_P1;SDS_P2;PMS_P1;PMS_P2;Temp;Humidity;BMP_temperature;BMP_pressure;BME280_temperature;BME280_humidity;BME280_pressure;Samples;Min_cycle;Max_cycle;Signal;HPM_P1;HPM_P2
2021/11/19 00:01:58;;;;;;;5.78;3.58;;;;;17.80;102647.00;;;;5036633;28;20204;-80
2021/11/19 00:04:26;;;;;;;7.68;3.92;;;;;17.80;102629.00;;;;5038687;28;20282;-80
2021/11/19 00:06:54;;;;;;;6.35;3.85;;;;;17.80;102634.00;;;;5040805;28;20199;-80
2021/11/19 00:09:22;;;;;;;5.20;4.03;;;;;17.80;102646.00;;;;5039040;28;20195;-80
2021/11/19 00:11:53;;;;;;;6.03;3.80;;;;;17.80;102633.00;;;;5040632;28;20231;-80
2021/11/19 00:14:22;;;;;;;6.35;3.78;;;;;17.80;102632.00;;;;5042376;28;20224;-80
2021/11/19 00:16:55;;;;;;;5.13;4.60;;;;;17.80;102628.00;;;;5037924;28;21306;-81
2021/11/19 00:19:22;;;;;;;6.50;3.70;;;;;17.90;102632.00;;;;5043821;28;20191;-81
2021/11/19 00:21:50;;;;;;;4.60;3.83;;;;;17.90;102635.00;;;;5037630;28;20203;-80
2021/11/19 00:24:17;;;;;;;6.55;3.67;;;;;17.90;102641.00;;;;5037590;28;20692;-81
2021/11/19 00:26:45;;;;;;;5.95;4.00;;;;;17.90;102650.00;;;;5042480;28;20193;-80
2021/11/19 00:29:15;;;;;;;6.15;4.07;;;;;17.90;102652.00;;;;5037973;28;20192;-80
2021/11/19 00:31:44;;;;;;;7.40;4.32;;;;;17.90;102651.00;;;;5038932;28;20709;-80
2021/11/19 00:34:11;;;;;;;5.93;4.45;;;;;17.90;102653.00;;;;5040115;28;20204;-80
2021/11/19 00:36:39;;;;;;;8.27;4.53;;;;;17.90;102646.00;;;;5037496;28;20554;-81
2021/11/19 00:39:10;;;;;;;6.53;4.43;;;;;17.90;102653.00;;;;5039178;28;20609;-81
2021/11/19 00:41:39;;;;;;;8.20;4.85;;;;;17.90;102643.00;;;;5042926;28;20206;-81
2021/11/19 00:44:09;;;;;;;5.55;4.40;;;;;17.90;102650.00;;;;5038793;28;20200;-81
2021/11/19 00:46:39;;;;;;;5.35;4.03;;;;;17.90;102655.00;;;;5041890;28;20208;-81
2021/11/19 00:49:07;;;;;;;10.30;4.68;;;;;17.90;102650.00;;;;5039684;28;20219;-81
2021/11/19 00:51:38;;;;;;;6.82;4.97;;;;;17.90;102655.00;;;;5050301;28;20243;-81
2021/11/19 00:54:07;;;;;;;6.47;4.85;;;;;17.90;102660.00;;;;5041836;28;20200;-81
2021/11/19 00:56:42;;;;;;;7.10;5.03;;;;;17.90;102655.00;;;;5036187;28;20205;-81
2021/11/19 00:59:11;;;;;;;9.63;5.43;;;;;17.90;102658.00;;;;5040444;28;20847;-81
2021/11/19 01:01:43;;;;;;;8.45;5.20;;;;;17.90;102643.00;;;;5043662;28;20661;-79
2021/11/19 01:04:11;;;;;;;5.95;4.43;;;;;17.90;102646.00;;;;5038548;28;20200;-80
2021/11/19 01:06:40;;;;;;;7.35;5.28;;;;;17.90;102639.00;;;;5030915;28;20927;-81
2021/11/19 01:09:10;;;;;;;6.97;4.82;;;;;17.90;102641.00;;;;5031128;28;20203;-81
2021/11/19 01:11:37;;;;;;;7.55;4.82;;;;;17.90;102640.00;;;;5031659;28;20227;-81
2021/11/19 01:14:09;;;;;;;7.57;4.90;;;;;17.80;102658.00;;;;5034078;28;20195;-81
2021/11/19 01:16:41;;;;;;;7.85;5.13;;;;;17.80;102651.00;;;;5037589;28;20193;-81
2021/11/19 01:19:11;;;;;;;6.45;5.10;;;;;17.80;102653.00;;;;5034387;28;20204;-81
2021/11/19 01:21:43;;;;;;;6.35;4.85;;;;;17.80;102660.00;;;;5032513;28;20201;-81
2021/11/19 01:24:10;;;;;;;8.10;4.95;;;;;17.80;102658.00;;;;5030137;28;20212;-81
2021/11/19 01:26:42;;;;;;;7.30;5.28;;;;;17.80;102662.00;;;;5031179;28;20207;-80
2021/11/19 01:29:12;;;;;;;7.82;5.45;;;;;17.80;102654.00;;;;5035291;28;20651;-80
2021/11/19 01:31:47;;;;;;;6.82;5.20;;;;;17.80;102656.00;;;;5030624;28;20224;-80
2021/11/19 01:34:15;;;;;;;10.32;5.40;;;;;17.90;102653.00;;;;5032394;28;20191;-81
2021/11/19 01:36:42;;;;;;;7.95;5.55;;;;;17.90;102650.00;;;;5033031;28;20204;-81
2021/11/19 01:39:13;;;;;;;10.65;5.28;;;;;17.80;102651.00;;;;5031616;28;20208;-81
2021/11/19 01:41:43;;;;;;;7.95;5.25;;;;;17.90;102645.00;;;;5030632;28;20681;-80
2021/11/19 01:44:17;;;;;;;8.50;5.68;;;;;17.80;102650.00;;;;5030803;28;20211;-81
2021/11/19 01:46:49;;;;;;;9.27;6.07;;;;;17.80;102647.00;;;;5032650;28;20208;-81
2021/11/19 01:49:16;;;;;;;9.38;5.55;;;;;17.90;102645.00;;;;5039141;28;20211;-81
2021/11/19 01:51:51;;;;;;;10.93;5.45;;;;;17.80;102652.00;;;;5043337;28;20259;-81
2021/11/19 01:54:23;;;;;;;8.95;6.25;;;;;17.90;102655.00;;;;5041648;28;20191;-81
2021/11/19 01:56:54;;;;;;;9.05;5.53;;;;;17.90;102655.00;;;;5033602;28;20198;-81
2021/11/19 01:59:24;;;;;;;8.63;5.85;;;;;17.90;102652.00;;;;5030406;28;20197;-81
2021/11/19 02:01:57;;;;;;;11.52;5.78;;;;;17.90;102646.00;;;;5030863;28;20203;-81
2021/11/19 02:04:30;;;;;;;11.13;6.63;;;;;17.90;102647.00;;;;5040666;28;20576;-81
2021/11/19 02:07:01;;;;;;;9.65;6.05;;;;;17.90;102643.00;;;;5042461;28;20658;-80
2021/11/19 02:09:35;;;;;;;10.18;6.25;;;;;17.90;102641.00;;;;5034710;28;20222;-82
2021/11/19 02:12:12;;;;;;;10.73;7.13;;;;;17.90;102642.00;;;;5030538;28;20311;-81
2021/11/19 02:14:52;;;;;;;8.93;6.05;;;;;17.90;102644.00;;;;5045189;28;20211;-81
2021/11/19 02:17:21;;;;;;;10.23;6.63;;;;;17.90;102639.00;;;;5045979;28;20207;-82
2021/11/19 02:19:52;;;;;;;10.88;6.47;;;;;17.90;102629.00;;;;5041925;28;20200;-81
2021/11/19 02:22:28;;;;;;;9.02;6.35;;;;;17.80;102627.00;;;;5029982;28;20196;-82
2021/11/19 02:24:59;;;;;;;9.00;6.13;;;;;17.90;102629.00;;;;5029882;28;20216;-80
2021/11/19 02:27:29;;;;;;;8.90;5.82;;;;;17.90;102639.00;;;;5029638;28;20574;-81
2021/11/19 02:30:01;;;;;;;10.23;5.78;;;;;17.80;102631.00;;;;5029055;28;20197;-82
2021/11/19 02:32:32;;;;;;;11.95;7.60;;;;;17.80;102631.00;;;;5029503;28;20247;-81
2021/11/19 02:35:01;;;;;;;12.02;7.18;;;;;17.90;102632.00;;;;5031198;28;20196;-81
2021/11/19 02:37:33;;;;;;;10.23;6.75;;;;;17.80;102632.00;;;;5030665;28;20216;-82
2021/11/19 02:40:05;;;;;;;8.32;6.25;;;;;17.80;102634.00;;;;5029883;28;20612;-81
2021/11/19 02:42:37;;;;;;;9.25;7.03;;;;;17.80;102632.00;;;;5041115;28;20191;-81
2021/11/19 02:45:11;;;;;;;8.65;6.55;;;;;17.80;102635.00;;;;5031260;28;20199;-81
2021/11/19 02:47:39;;;;;;;8.48;6.50;;;;;17.90;102634.00;;;;5040307;28;20946;-81
2021/11/19 02:50:09;;;;;;;11.50;6.85;;;;;17.80;102619.00;;;;5044329;28;20210;-81
2021/11/19 02:52:40;;;;;;;13.95;7.60;;;;;17.90;102623.00;;;;5046796;28;20235;-81
2021/11/19 02:55:11;;;;;;;10.27;7.03;;;;;17.90;102623.00;;;;5030505;28;20207;-81
2021/11/19 02:57:38;;;;;;;10.25;6.78;;;;;17.90;102625.00;;;;5029365;28;20211;-81
2021/11/19 03:00:10;;;;;;;9.07;6.15;;;;;17.80;102620.00;;;;5028865;28;20694;-80
2021/11/19 03:02:39;;;;;;;10.23;7.38;;;;;17.90;102612.00;;;;5034505;28;20918;-81
2021/11/19 03:05:10;;;;;;;10.20;7.15;;;;;17.90;102616.00;;;;5047731;28;20196;-81
2021/11/19 03:07:38;;;;;;;9.23;7.18;;;;;17.90;102615.00;;;;5044810;28;20196;-81
2021/11/19 03:10:11;;;;;;;8.55;6.63;;;;;17.80;102608.00;;;;5048806;28;20199;-81
2021/11/19 03:12:38;;;;;;;9.68;7.05;;;;;17.90;102610.00;;;;5031028;28;20604;-80
2021/11/19 03:15:10;;;;;;;9.05;6.47;;;;;17.80;102615.00;;;;5029002;28;20219;-80
2021/11/19 03:17:39;;;;;;;11.38;6.78;;;;;17.90;102611.00;;;;5041402;28;20559;-82
2021/11/19 03:20:08;;;;;;;10.60;7.35;;;;;17.80;102613.00;;;;5047519;28;20191;-80
2021/11/19 03:22:36;;;;;;;9.32;7.18;;;;;17.80;102607.00;;;;5047272;28;20192;-80
2021/11/19 03:25:05;;;;;;;10.40;7.20;;;;;17.80;102611.00;;;;5048989;28;20227;-81
2021/11/19 03:27:33;;;;;;;8.90;6.65;;;;;17.80;102609.00;;;;5044687;28;20195;-81
2021/11/19 03:30:01;;;;;;;12.55;7.55;;;;;17.80;102607.00;;;;5028368;28;20204;-81
2021/11/19 03:32:31;;;;;;;8.77;6.97;;;;;17.80;102614.00;;;;5028586;28;20235;-82
2021/11/19 03:35:00;;;;;;;9.20;6.25;;;;;17.80;102604.00;;;;5028396;28;20215;-81
2021/11/19 03:37:28;;;;;;;13.15;7.05;;;;;17.80;102606.00;;;;5041986;28;20203;-81
2021/11/19 03:39:55;;;;;;;9.30;7.50;;;;;17.80;102609.00;;;;5045872;28;20686;-81
2021/11/19 03:42:24;;;;;;;11.60;7.05;;;;;17.80;102609.00;;;;5034985;28;20219;-81
2021/11/19 03:44:55;;;;;;;12.70;7.97;;;;;17.80;102609.00;;;;5041935;28;20204;-81
2021/11/19 03:47:26;;;;;;;10.30;6.88;;;;;17.80;102610.00;;;;5027874;28;20295;-81
2021/11/19 03:49:55;;;;;;;9.88;7.97;;;;;17.80;102612.00;;;;5037486;28;20214;-80
2021/11/19 03:52:27;;;;;;;10.25;7.53;;;;;17.80;102612.00;;;;5047352;28;20231;-81
2021/11/19 03:54:58;;;;;;;12.27;6.93;;;;;17.80;102618.00;;;;5030407;28;20196;-80
2021/11/19 03:57:26;;;;;;;13.15;8.00;;;;;17.80;102618.00;;;;5030977;28;20662;-81
2021/11/19 03:59:55;;;;;;;10.20;7.38;;;;;17.80;102619.00;;;;5028173;28;20204;-81
2021/11/19 04:02:25;;;;;;;11.82;8.38;;;;;17.80;102619.00;;;;5036538;28;20214;-81
2021/11/19 04:04:53;;;;;;;10.68;8.23;;;;;17.80;102623.00;;;;5028731;28;20208;-81
2021/11/19 04:07:21;;;;;;;8.55;6.97;;;;;17.80;102619.00;;;;5028052;28;20192;-81
2021/11/19 04:09:50;;;;;;;10.98;7.63;;;;;17.80;102614.00;;;;5031690;28;20203;-80
2021/11/19 04:12:20;;;;;;;10.13;7.43;;;;;17.80;102615.00;;;;5028051;28;20227;-80
2021/11/19 04:14:48;;;;;;;8.52;7.30;;;;;17.80;102621.00;;;;5030098;28;20208;-80
2021/11/19 04:17:15;;;;;;;8.50;6.55;;;;;17.80;102622.00;;;;5027999;28;20292;-81
2021/11/19 04:19:43;;;;;;;8.57;6.53;;;;;17.90;102619.00;;;;5035040;28;20662;-81
2021/11/19 04:22:13;;;;;;;8.40;6.57;;;;;17.80;102625.00;;;;5027645;28;20250;-81
2021/11/19 04:24:45;;;;;;;9.05;6.80;;;;;17.80;102621.00;;;;5028255;28;20258;-80
2021/11/19 04:27:15;;;;;;;8.18;6.53;;;;;17.80;102626.00;;;;5041867;28;20196;-81
2021/11/19 04:29:42;;;;;;;8.68;6.63;;;;;17.90;102628.00;;;;5040370;28;20192;-81
2021/11/19 04:32:10;;;;;;;10.63;7.28;;;;;17.80;102622.00;;;;5028021;28;20961;-81
2021/11/19 04:34:38;;;;;;;10.80;7.45;;;;;17.80;102618.00;;;;5040355;28;20199;-81
2021/11/19 04:37:05;;;;;;;9.95;7.15;;;;;17.90;102628.00;;;;5042252;28;20658;-81
2021/11/19 04:39:32;;;;;;;10.88;7.30;;;;;17.90;102628.00;;;;5032364;28;20200;-81
2021/11/19 04:42:01;;;;;;;8.43;7.25;;;;;17.90;102630.00;;;;5034599;28;20199;-80
2021/11/19 04:44:29;;;;;;;11.45;7.53;;;;;17.90;102638.00;;;;5027270;28;20197;-81
2021/11/19 04:46:56;;;;;;;8.30;6.80;;;;;17.90;102645.00;;;;5031472;28;20203;-81
2021/11/19 04:49:24;;;;;;;10.10;7.07;;;;;17.90;102630.00;;;;5044741;28;20695;-81
2021/11/19 04:51:51;;;;;;;9.50;7.03;;;;;17.90;102640.00;;;;5040721;28;20232;-81
2021/11/19 04:54:20;;;;;;;8.95;6.53;;;;;17.90;102634.00;;;;5044014;28;20201;-81
2021/11/19 04:56:48;;;;;;;9.00;6.78;;;;;17.90;102628.00;;;;5031498;28;20203;-81
2021/11/19 04:59:17;;;;;;;8.65;6.63;;;;;17.90;102633.00;;;;5047979;28;20200;-81
2021/11/19 05:01:49;;;;;;;8.88;7.15;;;;;17.90;102628.00;;;;5043788;28;20196;-81
2021/11/19 05:04:17;;;;;;;8.82;6.35;;;;;17.90;102621.00;;;;5044902;28;20199;-81
2021/11/19 05:06:45;;;;;;;10.82;7.00;;;;;17.90;102618.00;;;;5049644;28;20204;-81
2021/11/19 05:09:13;;;;;;;9.30;6.28;;;;;17.90;102619.00;;;;5042752;28;20202;-82
2021/11/19 05:11:51;;;;;;;9.43;7.13;;;;;17.80;102623.00;;;;5044718;28;20216;-81
2021/11/19 05:14:21;;;;;;;8.30;6.50;;;;;17.90;102625.00;;;;5043435;28;20657;-81
2021/11/19 05:16:50;;;;;;;8.68;5.95;;;;;17.90;102634.00;;;;5045080;28;20203;-81
2021/11/19 05:19:18;;;;;;;7.50;5.95;;;;;17.90;102632.00;;;;5035345;28;20204;-80
2021/11/19 05:21:46;;;;;;;10.25;6.97;;;;;17.90;102635.00;;;;5039160;28;20232;-81
2021/11/19 05:24:14;;;;;;;9.25;6.72;;;;;18.00;102628.00;;;;5030937;28;20224;-80
2021/11/19 05:26:44;;;;;;;9.55;6.75;;;;;18.00;102630.00;;;;5035443;28;20200;-81
2021/11/19 05:29:13;;;;;;;9.98;7.55;;;;;18.00;102627.00;;;;5049459;28;20195;-81
2021/11/19 05:31:41;;;;;;;9.15;6.93;;;;;18.00;102626.00;;;;5030370;28;20200;-81
2021/11/19 05:34:11;;;;;;;10.40;7.53;;;;;18.00;102631.00;;;;5041614;28;20708;-81
2021/11/19 05:36:39;;;;;;;7.22;6.00;;;;;18.00;102625.00;;;;5030703;28;20192;-79
2021/11/19 05:39:07;;;;;;;8.40;6.85;;;;;18.00;102627.00;;;;5058131;28;20207;-79
2021/11/19 05:41:35;;;;;;;8.25;6.57;;;;;18.00;102621.00;;;;5038357;28;20196;-79
2021/11/19 05:44:03;;;;;;;7.18;5.90;;;;;18.00;102627.00;;;;5041672;28;20207;-80
2021/11/19 05:46:39;;;;;;;9.57;6.45;;;;;18.00;102622.00;;;;5043038;28;20199;-80
2021/11/19 05:49:08;;;;;;;11.80;6.85;;;;;18.10;102618.00;;;;5045137;28;20187;-80
2021/11/19 05:51:38;;;;;;;11.27;6.45;;;;;18.00;102614.00;;;;5036477;28;20362;-80
2021/11/19 05:54:06;;;;;;;10.05;6.97;;;;;18.00;102624.00;;;;5041652;28;20222;-80
2021/11/19 05:56:33;;;;;;;8.48;6.50;;;;;18.00;102628.00;;;;5036466;28;20200;-80
2021/11/19 05:59:00;;;;;;;9.20;6.68;;;;;18.10;102629.00;;;;5031547;28;20200;-79
2021/11/19 06:01:28;;;;;;;8.07;6.30;;;;;18.10;102626.00;;;;5036412;28;20204;-80
2021/11/19 06:03:55;;;;;;;9.40;7.13;;;;;18.10;102631.00;;;;5032378;28;20199;-80
2021/11/19 06:06:23;;;;;;;9.27;7.22;;;;;18.10;102628.00;;;;5031517;28;20214;-80
2021/11/19 06:08:52;;;;;;;7.40;6.32;;;;;18.10;102631.00;;;;5030896;28;20196;-80
2021/11/19 06:11:22;;;;;;;8.35;6.00;;;;;18.10;102625.00;;;;5029589;28;20206;-80
2021/11/19 06:13:53;;;;;;;6.57;5.70;;;;;18.10;102625.00;;;;5040546;28;20230;-80
2021/11/19 06:16:23;;;;;;;8.38;5.95;;;;;18.00;102625.00;;;;5029561;28;20216;-80
2021/11/19 06:18:54;;;;;;;10.88;6.38;;;;;18.10;102635.00;;;;5036259;28;20211;-80
2021/11/19 06:21:24;;;;;;;10.07;6.30;;;;;18.10;102635.00;;;;5037432;28;20199;-79
2021/11/19 06:23:57;;;;;;;8.27;5.63;;;;;18.00;102640.00;;;;5038641;28;20189;-80
2021/11/19 06:26:27;;;;;;;8.38;5.15;;;;;18.10;102630.00;;;;5045435;28;20214;-81
2021/11/19 06:29:02;;;;;;;9.15;5.85;;;;;18.10;102629.00;;;;5034790;28;20192;-81
2021/11/19 06:31:30;;;;;;;7.35;6.15;;;;;18.10;102633.00;;;;5028895;28;20230;-81
2021/11/19 06:33:57;;;;;;;7.60;5.72;;;;;18.10;102640.00;;;;5029103;28;20728;-81
2021/11/19 06:36:24;;;;;;;8.85;6.43;;;;;18.10;102635.00;;;;5040627;28;20207;-80
2021/11/19 06:38:54;;;;;;;9.73;6.15;;;;;18.10;102643.00;;;;5039568;28;20570;-82
2021/11/19 06:41:23;;;;;;;7.72;6.13;;;;;18.10;102638.00;;;;5034384;28;20317;-81
2021/11/19 06:43:50;;;;;;;9.02;5.63;;;;;18.10;102648.00;;;;5033577;28;20200;-81
2021/11/19 06:46:20;;;;;;;8.10;6.57;;;;;18.10;102645.00;;;;5034419;28;20215;-80
2021/11/19 06:48:48;;;;;;;9.05;6.13;;;;;18.10;102650.00;;;;5033406;28;20196;-80
2021/11/19 06:51:16;;;;;;;8.65;6.55;;;;;18.10;102647.00;;;;5035082;28;20223;-81
2021/11/19 06:53:44;;;;;;;9.60;6.28;;;;;18.10;102663.00;;;;5039907;28;20227;-80
2021/11/19 06:56:12;;;;;;;9.10;6.03;;;;;18.00;102655.00;;;;5037390;28;20192;-79
2021/11/19 06:58:40;;;;;;;9.98;6.30;;;;;18.00;102665.00;;;;5029556;28;20573;-80
2021/11/19 07:01:08;;;;;;;9.45;5.45;;;;;18.00;102661.00;;;;5036243;28;20333;-80
2021/11/19 07:03:35;;;;;;;6.70;5.47;;;;;18.00;102661.00;;;;5040390;28;20196;-81
2021/11/19 07:06:03;;;;;;;8.30;6.03;;;;;18.00;102657.00;;;;5037548;28;20248;-81
2021/11/19 07:08:31;;;;;;;11.10;5.88;;;;;18.00;102661.00;;;;5034632;28;20573;-81
2021/11/19 07:11:01;;;;;;;8.10;6.40;;;;;18.00;102672.00;;;;5039081;28;20298;-82
2021/11/19 07:13:30;;;;;;;8.13;5.70;;;;;18.00;102674.00;;;;5037953;28;20231;-82
2021/11/19 07:15:58;;;;;;;8.13;5.35;;;;;18.10;102672.00;;;;5035063;28;20202;-82
2021/11/19 07:18:26;;;;;;;7.00;5.32;;;;;18.10;102673.00;;;;5043117;28;20208;-82
2021/11/19 07:20:53;;;;;;;6.85;5.40;;;;;18.10;102680.00;;;;5040559;28;20204;-82
2021/11/19 07:23:21;;;;;;;7.57;5.03;;;;;18.10;102676.00;;;;5042063;28;20566;-82
2021/11/19 07:25:50;;;;;;;6.30;5.07;;;;;18.10;102677.00;;;;5039525;28;20615;-82
2021/11/19 07:28:19;;;;;;;6.75;5.38;;;;;18.10;102686.00;;;;5054803;28;20572;-82
2021/11/19 07:30:51;;;;;;;5.82;4.38;;;;;18.10;102682.00;;;;5041633;28;20322;-83
2021/11/19 07:33:20;;;;;;;5.90;4.63;;;;;18.10;102690.00;;;;5047763;28;20705;-83
2021/11/19 07:35:51;;;;;;;6.35;4.65;;;;;18.10;102689.00;;;;5048526;28;20919;-81
2021/11/19 07:38:20;;;;;;;5.95;4.82;;;;;18.10;102696.00;;;;5051030;28;20212;-81
2021/11/19 07:40:48;;;;;;;6.65;5.15;;;;;18.20;102693.00;;;;5032914;28;20208;-81
2021/11/19 07:43:16;;;;;;;6.30;4.30;;;;;18.20;102703.00;;;;5031193;28;20259;-80
2021/11/19 07:45:45;;;;;;;8.95;4.85;;;;;18.20;102701.00;;;;5035958;28;20187;-80
2021/11/19 07:48:22;;;;;;;8.15;5.38;;;;;18.10;102704.00;;;;5035522;28;20196;-81
2021/11/19 07:50:52;;;;;;;6.90;4.25;;;;;18.20;102705.00;;;;5043448;28;20202;-81
2021/11/19 07:53:21;;;;;;;8.70;5.88;;;;;18.20;102711.00;;;;5040515;28;20250;-80
2021/11/19 07:55:49;;;;;;;7.03;5.05;;;;;18.20;102709.00;;;;5038443;28;20258;-80
2021/11/19 07:58:17;;;;;;;5.15;4.15;;;;;18.30;102712.00;;;;5026332;28;20207;-80
2021/11/19 08:00:47;;;;;;;9.05;5.55;;;;;18.30;102716.00;;;;5038733;28;20238;-80
2021/11/19 08:03:17;;;;;;;5.43;4.47;;;;;18.30;102716.00;;;;5046018;28;20203;-80
2021/11/19 08:05:47;;;;;;;6.68;4.53;;;;;18.30;102718.00;;;;5046402;28;20211;-80
2021/11/19 08:08:15;;;;;;;6.50;4.25;;;;;18.30;102721.00;;;;5038423;28;20187;-81
2021/11/19 08:10:43;;;;;;;5.13;3.92;;;;;18.30;102721.00;;;;5034816;28;20203;-80
2021/11/19 08:13:10;;;;;;;5.93;4.78;;;;;18.30;102717.00;;;;5042567;28;20583;-82
2021/11/19 08:15:39;;;;;;;4.63;4.05;;;;;18.30;102718.00;;;;5034260;28;20200;-83
2021/11/19 08:18:14;;;;;;;5.38;4.50;;;;;18.30;102717.00;;;;5031865;28;20201;-82
2021/11/19 08:20:48;;;;;;;5.53;4.05;;;;;18.30;102719.00;;;;5037319;28;20793;-83
2021/11/19 08:23:18;;;;;;;8.48;4.20;;;;;18.30;102724.00;;;;5038381;28;20196;-83
2021/11/19 08:25:46;;;;;;;6.55;4.35;;;;;18.30;102719.00;;;;5039928;28;20216;-83
2021/11/19 08:28:14;;;;;;;6.20;3.50;;;;;18.40;102722.00;;;;5042301;28;20188;-82
2021/11/19 08:30:47;;;;;;;4.85;3.95;;;;;18.40;102717.00;;;;5047141;28;20247;-82
2021/11/19 08:33:15;;;;;;;6.95;4.60;;;;;18.40;102720.00;;;;5050481;28;20245;-82
2021/11/19 08:35:44;;;;;;;4.22;3.47;;;;;18.40;102720.00;;;;5040621;28;20204;-82
2021/11/19 08:38:13;;;;;;;17.38;4.18;;;;;18.40;102714.00;;;;5049712;28;20253;-83
2021/11/19 08:40:44;;;;;;;5.88;3.92;;;;;18.50;102719.00;;;;5038346;28;20193;-82
2021/11/19 08:43:13;;;;;;;6.00;4.03;;;;;18.50;102717.00;;;;5035939;28;20192;-82
2021/11/19 08:45:41;;;;;;;5.70;3.67;;;;;18.50;102716.00;;;;5039107;28;20571;-84
2021/11/19 08:48:09;;;;;;;6.55;3.63;;;;;18.50;102715.00;;;;5044926;28;20673;-81
2021/11/19 08:50:39;;;;;;;4.60;3.67;;;;;18.50;102724.00;;;;5045157;28;20693;-82
2021/11/19 08:53:10;;;;;;;4.88;3.55;;;;;18.50;102718.00;;;;5040629;28;20197;-81
2021/11/19 08:55:40;;;;;;;6.60;3.65;;;;;18.50;102723.00;;;;5043602;28;20200;-80
2021/11/19 08:58:08;;;;;;;4.65;3.53;;;;;18.60;102731.00;;;;5038867;28;20189;-83
2021/11/19 09:00:38;;;;;;;5.95;3.50;;;;;18.60;102732.00;;;;5054770;28;20203;-81
2021/11/19 09:03:09;;;;;;;5.45;3.70;;;;;18.60;102735.00;;;;5046448;28;20199;-80
2021/11/19 09:05:40;;;;;;;5.63;4.03;;;;;18.60;102740.00;;;;5047055;28;20257;-81
2021/11/19 09:08:13;;;;;;;5.35;4.07;;;;;18.60;102735.00;;;;5050718;28;20192;-81
2021/11/19 09:10:41;;;;;;;5.20;3.42;;;;;18.70;102738.00;;;;5047523;28;20196;-82
2021/11/19 09:13:09;;;;;;;4.72;3.42;;;;;18.70;102733.00;;;;5042310;28;20207;-82
2021/11/19 09:15:37;;;;;;;7.30;3.40;;;;;18.70;102729.00;;;;5038377;28;20212;-82
2021/11/19 09:18:26;;;;;;;7.47;4.43;;;;;18.60;102732.00;;;;5039271;28;20216;-82
2021/11/19 09:21:14;;;;;;;5.80;3.92;;;;;18.70;102733.00;;;;5049781;28;20572;-81
2021/11/19 09:23:47;;;;;;;6.07;3.85;;;;;18.70;102730.00;;;;5039180;28;20200;-81
2021/11/19 09:26:16;;;;;;;5.40;2.80;;;;;18.80;102729.00;;;;5047940;28;20215;-83
2021/11/19 09:28:47;;;;;;;4.55;2.92;;;;;18.80;102735.00;;;;5051296;28;20204;-84
2021/11/19 09:31:18;;;;;;;3.00;2.45;;;;;18.90;102738.00;;;;5046827;28;20189;-83
2021/11/19 09:33:47;;;;;;;5.47;3.03;;;;;18.90;102737.00;;;;5037086;28;20216;-82
2021/11/19 09:36:14;;;;;;;4.63;2.92;;;;;19.00;102725.00;;;;5042766;28;20192;-83
2021/11/19 09:38:43;;;;;;;5.07;2.80;;;;;19.00;102727.00;;;;5048963;28;20199;-83
2021/11/19 09:41:47;;;;;;;5.88;2.85;;;;;18.90;102722.00;;;;5039104;28;20202;-82
2021/11/19 09:44:58;;;;;;;7.63;2.38;;;;;18.90;102734.00;;;;5033683;28;20196;-83
2021/11/19 09:47:55;;;;;;;7.85;3.22;;;;;19.00;102731.00;;;;5008720;28;20207;-83
2021/11/19 09:51:22;;;;;;;4.57;2.90;;;;;19.00;102731.00;;;;5042124;28;20208;-82
2021/11/19 09:54:23;;;;;;;3.03;2.38;;;;;19.00;102733.00;;;;5045436;28;20419;-82
2021/11/19 09:57:20;;;;;;;5.10;2.08;;;;;19.10;102742.00;;;;5044538;28;20237;-83
2021/11/19 09:59:51;;;;;;;3.55;2.35;;;;;19.20;102743.00;;;;5031567;28;20207;-84
2021/11/19 10:02:51;;;;;;;6.10;2.70;;;;;19.10;102738.00;;;;5050101;28;20206;-82
2021/11/19 10:05:43;;;;;;;6.15;2.70;;;;;19.20;102745.00;;;;5045598;28;20191;-83
2021/11/19 10:08:40;;;;;;;7.07;2.78;;;;;19.20;102744.00;;;;5037557;28;20216;-83
2021/11/19 10:11:13;;;;;;;3.22;2.38;;;;;19.30;102740.00;;;;5039555;28;20191;-83
2021/11/19 10:14:31;;;;;;;2.97;2.30;;;;;19.20;102752.00;;;;5030264;28;20678;-84
2021/11/19 10:17:07;;;;;;;3.55;2.30;;;;;19.30;102746.00;;;;5000633;28;20243;-84
2021/11/19 10:19:37;;;;;;;5.05;2.78;;;;;19.40;102745.00;;;;4996101;28;20284;-84
2021/11/19 10:22:13;;;;;;;5.38;2.85;;;;;19.40;102744.00;;;;5009801;28;20589;-84
2021/11/19 10:24:54;;;;;;;8.00;3.20;;;;;19.40;102741.00;;;;5034746;28;20681;-86
2021/11/19 10:27:24;;;;;;;10.65;2.58;;;;;19.50;102747.00;;;;5029270;28;20200;-84
2021/11/19 10:29:55;;;;;;;3.60;2.20;;;;;19.50;102745.00;;;;5032770;28;20197;-83
2021/11/19 10:32:26;;;;;;;7.82;3.17;;;;;19.60;102745.00;;;;5044125;28;20203;-84
2021/11/19 10:35:06;;;;;;;4.35;2.00;;;;;19.60;102744.00;;;;5045715;28;20231;-84
2021/11/19 10:38:02;;;;;;;4.75;2.80;;;;;19.60;102755.00;;;;5043127;28;20195;-84
2021/11/19 10:41:08;;;;;;;5.18;2.33;;;;;19.60;102743.00;;;;5030781;28;20192;-84
2021/11/19 10:43:56;;;;;;;5.30;2.97;;;;;19.60;102745.00;;;;5014126;28;20199;-82
2021/11/19 10:46:56;;;;;;;8.05;3.00;;;;;19.60;102751.00;;;;5043430;28;20202;-84
2021/11/19 10:49:55;;;;;;;8.02;2.90;;;;;19.60;102750.00;;;;5036096;28;20579;-84
2021/11/19 10:52:55;;;;;;;3.38;2.97;;;;;19.60;102744.00;;;;5043702;28;20226;-83
2021/11/19 10:56:01;;;;;;;4.47;3.25;;;;;19.50;102745.00;;;;5043359;28;20322;-82
2021/11/19 10:58:56;;;;;;;9.30;2.90;;;;;19.50;102743.00;;;;5041810;28;20206;-82
2021/11/19 11:01:33;;;;;;;5.03;3.00;;;;;19.60;102740.00;;;;5032876;28;20204;-83
2021/11/19 11:04:07;;;;;;;5.50;3.38;;;;;19.60;102744.00;;;;5029869;28;20202;-83
2021/11/19 11:06:52;;;;;;;3.90;2.97;;;;;19.50;102739.00;;;;5037453;28;20207;-83
2021/11/19 11:09:28;;;;;;;3.90;2.80;;;;;19.50;102740.00;;;;5041094;28;20942;-82
2021/11/19 11:12:09;;;;;;;4.65;3.13;;;;;19.60;102744.00;;;;5044535;28;20279;-82
2021/11/19 11:14:38;;;;;;;4.15;3.72;;;;;19.60;102744.00;;;;5046962;28;20231;-81
2021/11/19 11:17:25;;;;;;;3.13;2.88;;;;;19.50;102744.00;;;;5043574;28;20196;-81
2021/11/19 11:19:57;;;;;;;7.35;3.30;;;;;19.70;102763.00;;;;5052209;28;20207;-83
2021/11/19 11:22:29;;;;;;;7.40;3.35;;;;;19.70;102749.00;;;;5057210;28;20228;-82
2021/11/19 11:25:03;;;;;;;7.05;3.35;;;;;19.70;102746.00;;;;5038540;28;20658;-82
2021/11/19 11:27:54;;;;;;;5.38;2.95;;;;;19.60;102741.00;;;;5032942;28;20203;-82
2021/11/19 11:30:23;;;;;;;3.10;2.80;;;;;19.70;102736.00;;;;5031555;28;20295;-82
2021/11/19 11:33:04;;;;;;;6.22;3.28;;;;;19.70;102737.00;;;;5053247;28;20208;-82
2021/11/19 11:35:46;;;;;;;6.60;2.55;;;;;19.70;102740.00;;;;5039022;28;20220;-83
2021/11/19 11:38:31;;;;;;;7.20;2.72;;;;;19.70;102738.00;;;;5047858;28;20677;-83
2021/11/19 11:41:11;;;;;;;7.88;3.38;;;;;19.70;102734.00;;;;5042776;28;20216;-82
2021/11/19 11:43:41;;;;;;;5.43;2.20;;;;;19.80;102736.00;;;;5030570;28;20207;-81
2021/11/19 11:46:31;;;;;;;7.30;2.55;;;;;19.70;102734.00;;;;5048066;28;20229;-84
2021/11/19 11:49:17;;;;;;;2.67;2.45;;;;;19.70;102737.00;;;;5047526;28;20209;-83
2021/11/19 11:51:58;;;;;;;2.88;1.92;;;;;19.80;102742.00;;;;5047457;28;20224;-81
2021/11/19 11:54:33;;;;;;;3.15;1.65;;;;;19.80;102750.00;;;;5048751;28;20245;-82
2021/11/19 11:57:30;;;;;;;2.58;2.00;;;;;19.70;102730.00;;;;5049181;28;20549;-81
2021/11/19 12:00:00;;;;;;;6.18;2.03;;;;;19.90;102738.00;;;;5049283;28;20689;-83
2021/11/19 12:02:39;;;;;;;2.97;2.35;;;;;19.80;102749.00;;;;5051837;28;20210;-83
2021/11/19 12:05:35;;;;;;;3.55;1.75;;;;;19.80;102742.00;;;;5050668;28;20199;-83
2021/11/19 12:08:36;;;;;;;2.55;1.90;;;;;19.80;102734.00;;;;5052725;28;20204;-82
2021/11/19 12:11:43;;;;;;;2.28;1.73;;;;;19.80;102746.00;;;;5043211;28;20677;-83
2021/11/19 12:14:23;;;;;;;4.05;1.90;;;;;19.90;102740.00;;;;5050321;28;20665;-83
2021/11/19 12:17:02;;;;;;;2.88;2.00;;;;;19.90;102737.00;;;;5045548;28;20195;-84
2021/11/19 12:19:35;;;;;;;7.30;2.10;;;;;19.90;102735.00;;;;5036140;28;20192;-83
2021/11/19 12:22:09;;;;;;;4.97;1.95;;;;;20.00;102746.00;;;;5036646;28;20192;-82
2021/11/19 12:24:41;;;;;;;3.45;1.92;;;;;20.00;102743.00;;;;5047231;28;20218;-82
2021/11/19 12:27:33;;;;;;;2.58;1.42;;;;;19.90;102731.00;;;;5039127;28;20673;-82
2021/11/19 12:30:20;;;;;;;1.65;1.55;;;;;20.00;102734.00;;;;5046244;28;20230;-84
2021/11/19 12:32:51;;;;;;;2.97;1.55;;;;;20.00;102736.00;;;;5040709;28;20235;-81
2021/11/19 12:35:24;;;;;;;3.60;1.83;;;;;20.00;102730.00;;;;5044991;28;20223;-83